createdAt,value
2023-04-28T00:00:58.250Z,11.42
2023-04-28T00:03:26.511Z,11.39
2023-04-28T00:05:53.821Z,11.38
2023-04-28T00:08:22.690Z,11.39
2023-04-28T00:10:49.713Z,11.42
2023-04-28T00:13:16.750Z,11.43
2023-04-28T00:15:43.753Z,11.40
2023-04-28T00:18:10.823Z,11.39
2023-04-28T00:20:37.844Z,11.34
2023-04-28T00:23:04.854Z,11.32
2023-04-28T00:25:32.010Z,11.26
2023-04-28T00:27:59.020Z,11.27
2023-04-28T00:30:26.196Z,11.25
2023-04-28T00:32:53.585Z,11.25
2023-04-28T00:35:20.798Z,11.25
2023-04-28T00:37:48.322Z,11.27
2023-04-28T00:40:15.555Z,11.24
2023-04-28T00:42:42.660Z,11.26
2023-04-28T00:45:10.142Z,11.24
2023-04-28T00:47:38.514Z,11.18
2023-04-28T00:50:06.820Z,11.10
2023-04-28T00:52:33.971Z,11.06
2023-04-28T00:55:01.097Z,11.07
2023-04-28T00:57:28.316Z,11.09
2023-04-28T00:59:55.527Z,11.11
2023-04-28T01:02:23.297Z,11.09
2023-04-28T01:04:51.450Z,11.07
2023-04-28T01:07:22.671Z,11.00
2023-04-28T01:09:49.750Z,10.96
2023-04-28T01:12:21.081Z,10.97
2023-04-28T01:14:52.404Z,10.94
2023-04-28T01:17:19.550Z,10.95
2023-04-28T01:19:47.226Z,10.92
2023-04-28T01:22:16.729Z,10.89
2023-04-28T01:24:44.610Z,10.90
2023-04-28T01:27:13.932Z,10.89
2023-04-28T01:29:42.264Z,10.90
2023-04-28T01:32:09.255Z,10.90
2023-04-28T01:34:36.251Z,10.91
2023-04-28T01:37:06.218Z,10.89
2023-04-28T01:39:33.475Z,10.85
2023-04-28T01:42:01.029Z,10.83
2023-04-28T01:44:28.636Z,10.84
2023-04-28T01:46:56.019Z,10.83
2023-04-28T01:49:23.149Z,10.83
2023-04-28T01:51:50.343Z,10.79
2023-04-28T01:54:17.492Z,10.78
2023-04-28T01:56:44.658Z,10.77
2023-04-28T01:59:15.392Z,10.75
2023-04-28T02:01:43.561Z,10.73
2023-04-28T02:04:12.778Z,10.72
2023-04-28T02:06:41.483Z,10.70
2023-04-28T02:09:08.545Z,10.69
2023-04-28T02:11:35.593Z,10.66
2023-04-28T02:14:03.356Z,10.60
2023-04-28T02:16:30.796Z,10.62
2023-04-28T02:18:57.876Z,10.58
2023-04-28T02:21:28.870Z,10.57
2023-04-28T02:23:56.320Z,10.54
2023-04-28T02:26:24.776Z,10.56
2023-04-28T02:28:52.454Z,10.54
2023-04-28T02:31:19.573Z,10.57
2023-04-28T02:33:46.859Z,10.57
2023-04-28T02:36:14.421Z,10.57
2023-04-28T02:38:41.946Z,10.55
2023-04-28T02:41:14.812Z,10.55
2023-04-28T02:43:42.506Z,10.51
2023-04-28T02:46:10.001Z,10.54
2023-04-28T02:48:39.361Z,10.54
2023-04-28T02:51:08.148Z,10.58
2023-04-28T02:53:36.105Z,10.58
2023-04-28T02:56:05.289Z,10.57
2023-04-28T02:58:33.703Z,10.58
2023-04-28T03:01:01.711Z,10.60
2023-04-28T03:03:28.955Z,10.62
2023-04-28T03:05:57.250Z,10.59
2023-04-28T03:08:24.399Z,10.59
2023-04-28T03:10:51.429Z,10.61
2023-04-28T03:13:20.941Z,10.63
2023-04-28T03:15:48.802Z,10.64
2023-04-28T03:18:19.730Z,10.64
2023-04-28T03:20:46.729Z,10.63
2023-04-28T03:23:13.954Z,10.66
2023-04-28T03:25:41.486Z,10.69
2023-04-28T03:28:08.547Z,10.69
2023-04-28T03:30:36.528Z,10.70
2023-04-28T03:33:06.137Z,10.69
2023-04-28T03:35:33.303Z,10.72
2023-04-28T03:38:00.248Z,10.73
2023-04-28T03:40:28.208Z,10.72
2023-04-28T03:43:15.265Z,10.68
2023-04-28T03:45:59.298Z,10.68
2023-04-28T03:48:26.869Z,10.70
2023-04-28T03:50:54.498Z,10.72
2023-04-28T03:53:26.253Z,10.72
2023-04-28T03:55:53.744Z,10.72
2023-04-28T03:58:21.396Z,10.71
2023-04-28T04:00:48.409Z,10.70
2023-04-28T04:03:15.603Z,10.71
2023-04-28T04:05:44.441Z,10.71
2023-04-28T04:08:12.639Z,10.70
2023-04-28T04:10:39.611Z,10.71
2023-04-28T04:13:08.703Z,10.70
2023-04-28T04:15:36.009Z,10.68
2023-04-28T04:18:04.397Z,10.71
2023-04-28T04:20:47.009Z,10.72
2023-04-28T04:23:14.873Z,10.73
2023-04-28T04:25:42.965Z,10.75
2023-04-28T04:28:10.891Z,10.78
2023-04-28T04:30:38.024Z,10.82
2023-04-28T04:33:05.310Z,10.88
2023-04-28T04:35:33.906Z,10.85
2023-04-28T04:38:01.665Z,10.85
2023-04-28T04:40:29.144Z,10.88
2023-04-28T04:42:56.786Z,10.88
2023-04-28T04:45:27.936Z,10.85
2023-04-28T04:47:56.470Z,10.84
2023-04-28T04:50:24.710Z,10.84
2023-04-28T04:52:54.808Z,10.85
2023-04-28T04:55:23.737Z,10.87
2023-04-28T04:57:52.687Z,10.87
2023-04-28T05:00:28.544Z,10.87
2023-04-28T05:02:56.363Z,10.83
2023-04-28T05:05:24.016Z,10.80
2023-04-28T05:08:03.995Z,10.83
2023-04-28T05:10:33.069Z,10.82
2023-04-28T05:13:01.032Z,10.84
2023-04-28T05:15:28.365Z,10.83
2023-04-28T05:18:14.466Z,10.85
2023-04-28T05:20:42.303Z,10.85
2023-04-28T05:23:09.820Z,10.88
2023-04-28T05:25:37.732Z,10.88
2023-04-28T05:28:07.857Z,10.90
2023-04-28T05:30:35.099Z,10.91
2023-04-28T05:33:03.242Z,10.92
2023-04-28T05:35:31.831Z,10.93
2023-04-28T05:37:59.681Z,10.96
2023-04-28T05:40:27.123Z,10.99
2023-04-28T05:42:55.695Z,11.02
2023-04-28T05:45:22.785Z,11.03
2023-04-28T05:47:50.373Z,11.04
2023-04-28T05:50:19.015Z,11.04
2023-04-28T05:52:46.075Z,11.05
2023-04-28T05:55:13.749Z,11.09
2023-04-28T05:57:51.894Z,11.11
2023-04-28T06:00:22.083Z,11.17
2023-04-28T06:02:50.087Z,11.20
2023-04-28T06:05:18.351Z,11.24
2023-04-28T06:07:49.715Z,11.25
2023-04-28T06:10:17.318Z,11.29
2023-04-28T06:12:44.534Z,11.30
2023-04-28T06:15:11.964Z,11.35
2023-04-28T06:17:39.867Z,11.38
2023-04-28T06:20:08.317Z,11.38
2023-04-28T06:22:35.379Z,11.41
2023-04-28T06:25:02.371Z,11.42
2023-04-28T06:27:49.733Z,11.44
2023-04-28T06:30:20.717Z,11.48
2023-04-28T06:32:48.018Z,11.53
2023-04-28T06:35:16.826Z,11.60
2023-04-28T06:37:44.221Z,11.66
2023-04-28T06:40:11.940Z,11.73
2023-04-28T06:42:43.347Z,11.79
2023-04-28T06:45:12.539Z,11.80
2023-04-28T06:47:40.956Z,11.87
2023-04-28T06:50:10.063Z,11.90
2023-04-28T06:52:39.907Z,11.95
2023-04-28T06:55:11.001Z,11.98
2023-04-28T06:57:42.681Z,11.97
2023-04-28T07:00:10.905Z,12.01
2023-04-28T07:02:38.355Z,12.01
2023-04-28T07:05:05.880Z,12.03
2023-04-28T07:07:34.201Z,12.02
2023-04-28T07:10:04.236Z,12.06
2023-04-28T07:12:31.341Z,12.10
2023-04-28T07:15:10.624Z,12.11
2023-04-28T07:17:38.524Z,12.15
2023-04-28T07:20:07.185Z,12.22
2023-04-28T07:22:35.185Z,12.26
2023-04-28T07:25:02.291Z,12.29
2023-04-28T07:27:29.321Z,12.28
2023-04-28T07:29:59.104Z,12.27
2023-04-28T07:32:26.315Z,12.30
2023-04-28T07:34:54.392Z,12.25
2023-04-28T07:37:21.364Z,12.25
2023-04-28T07:39:48.929Z,12.21
2023-04-28T07:42:15.997Z,12.17
2023-04-28T07:44:43.000Z,12.13
2023-04-28T07:47:11.056Z,12.13
2023-04-28T07:49:38.921Z,12.13
2023-04-28T07:52:05.951Z,12.16
2023-04-28T07:54:33.214Z,12.16
2023-04-28T07:57:01.651Z,12.16
2023-04-28T07:59:28.853Z,12.18
2023-04-28T08:01:58.549Z,12.20
2023-04-28T08:04:26.054Z,12.19
2023-04-28T08:06:54.068Z,12.18
2023-04-28T08:09:21.083Z,12.15
2023-04-28T08:11:47.962Z,12.11
2023-04-28T08:14:15.063Z,12.06
2023-04-28T08:16:42.314Z,12.05
2023-04-28T08:19:10.611Z,12.02
2023-04-28T08:21:37.649Z,12.01
2023-04-28T08:24:05.064Z,12.00
2023-04-28T08:26:32.880Z,12.02
2023-04-28T08:29:00.329Z,12.00
2023-04-28T08:31:27.327Z,11.96
2023-04-28T08:33:55.612Z,11.94
2023-04-28T08:36:23.930Z,11.94
2023-04-28T08:38:51.035Z,11.95
2023-04-28T08:41:19.588Z,11.96
2023-04-28T08:43:46.736Z,11.97
2023-04-28T08:46:15.044Z,11.95
2023-04-28T08:48:45.333Z,11.90
2023-04-28T08:51:29.027Z,11.82
2023-04-28T08:54:29.368Z,11.82
2023-04-28T08:56:46.191Z,11.78
2023-04-28T08:59:13.571Z,11.73
2023-04-28T09:01:40.612Z,11.63
2023-04-28T09:04:09.024Z,11.52
2023-04-28T09:06:38.828Z,11.50
2023-04-28T09:09:24.738Z,11.52
2023-04-28T09:12:16.668Z,11.53
2023-04-28T09:14:44.108Z,11.59
2023-04-28T09:17:13.463Z,11.59
2023-04-28T09:19:43.192Z,11.60
2023-04-28T09:22:25.684Z,11.62
2023-04-28T09:24:55.581Z,11.66
2023-04-28T09:27:28.429Z,11.74
2023-04-28T09:29:55.747Z,11.77
2023-04-28T09:32:24.096Z,11.83
2023-04-28T09:34:57.235Z,11.89
2023-04-28T09:37:31.647Z,11.92
2023-04-28T09:40:06.019Z,11.89
2023-04-28T09:42:46.896Z,11.88
2023-04-28T09:45:15.734Z,11.82
2023-04-28T09:47:45.304Z,11.78
2023-04-28T09:50:17.899Z,11.73
2023-04-28T09:52:57.012Z,11.59
2023-04-28T09:55:24.699Z,11.39
2023-04-28T09:57:55.803Z,11.30
2023-04-28T10:00:23.645Z,11.26
2023-04-28T10:02:52.937Z,11.22
2023-04-28T10:05:23.785Z,11.29
2023-04-28T10:07:54.268Z,11.38
2023-04-28T10:10:22.030Z,11.45
2023-04-28T10:12:49.120Z,11.52
2023-04-28T10:15:17.616Z,11.57
2023-04-28T10:17:48.334Z,11.59
2023-04-28T10:20:16.994Z,11.72
2023-04-28T10:22:59.588Z,11.77
2023-04-28T10:25:30.205Z,11.74
2023-04-28T10:27:58.860Z,11.76
2023-04-28T10:30:30.293Z,11.76
2023-04-28T10:33:06.914Z,11.70
2023-04-28T10:35:36.542Z,11.64
2023-04-28T10:38:09.894Z,11.65
2023-04-28T10:41:03.591Z,11.72
2023-04-28T10:43:36.123Z,11.78
2023-04-28T10:46:06.505Z,11.74
2023-04-28T10:48:36.644Z,11.76
2023-04-28T10:51:04.776Z,11.76
2023-04-28T10:53:44.628Z,11.82
2023-04-28T10:56:25.657Z,11.88
2023-04-28T10:58:57.314Z,11.98
2023-04-28T11:01:26.172Z,12.05
2023-04-28T11:04:05.370Z,12.07
2023-04-28T11:06:35.786Z,12.08
2023-04-28T11:09:35.473Z,12.12
2023-04-28T11:12:08.703Z,12.10
2023-04-28T11:14:37.394Z,12.14
2023-04-28T11:17:05.474Z,12.25
2023-04-28T11:19:34.431Z,12.26
2023-04-28T11:22:03.813Z,12.26
2023-04-28T11:24:33.268Z,12.24
2023-04-28T11:27:01.235Z,12.22
2023-04-28T11:29:33.828Z,12.27
2023-04-28T11:32:00.964Z,12.26
2023-04-28T11:34:30.980Z,12.25
2023-04-28T11:36:59.893Z,12.26
2023-04-28T11:39:34.232Z,12.29
2023-04-28T11:42:11.082Z,12.25
2023-04-28T11:44:38.347Z,12.25
2023-04-28T11:47:07.631Z,12.23
2023-04-28T11:49:47.916Z,12.27
2023-04-28T11:52:14.884Z,12.28
2023-04-28T11:54:43.821Z,12.31
2023-04-28T11:57:23.704Z,12.37
2023-04-28T11:59:52.065Z,12.43
2023-04-28T12:02:31.630Z,12.50
2023-04-28T12:05:07.873Z,12.49
2023-04-28T12:07:45.823Z,12.46
2023-04-28T12:10:19.018Z,12.48
2023-04-28T12:12:52.413Z,12.43
2023-04-28T12:15:22.760Z,12.41
2023-04-28T12:17:52.603Z,12.45
2023-04-28T12:20:37.564Z,12.52
2023-04-28T12:23:06.804Z,12.53
2023-04-28T12:25:35.504Z,12.54
2023-04-28T12:28:08.618Z,12.58
2023-04-28T12:30:58.819Z,12.60
2023-04-28T12:33:29.206Z,12.60
2023-04-28T12:35:58.132Z,12.61
2023-04-28T12:38:25.431Z,12.64
2023-04-28T12:40:53.994Z,12.62
2023-04-28T12:43:23.661Z,12.64
2023-04-28T12:45:53.698Z,12.68
2023-04-28T12:48:21.385Z,12.70
2023-04-28T12:50:48.390Z,12.71
2023-04-28T12:53:15.705Z,12.73
2023-04-28T12:55:42.776Z,12.78
2023-04-28T12:58:10.040Z,12.79
2023-04-28T13:00:36.975Z,12.73
2023-04-28T13:03:04.154Z,12.69
2023-04-28T13:05:33.015Z,12.71
2023-04-28T13:08:00.704Z,12.70
2023-04-28T13:10:27.847Z,12.71
2023-04-28T13:12:54.852Z,12.68
2023-04-28T13:15:21.818Z,12.68
2023-04-28T13:17:50.027Z,12.63
2023-04-28T13:20:18.049Z,12.67
2023-04-28T13:22:45.630Z,12.67
2023-04-28T13:25:12.621Z,12.67
2023-04-28T13:27:42.696Z,12.67
2023-04-28T13:30:11.304Z,12.65
2023-04-28T13:32:38.455Z,12.65
2023-04-28T13:35:07.456Z,12.67
2023-04-28T13:37:35.693Z,12.71
2023-04-28T13:40:04.552Z,12.74
2023-04-28T13:42:31.633Z,12.78
2023-04-28T13:44:58.484Z,12.80
2023-04-28T13:47:26.990Z,12.81
2023-04-28T13:49:53.867Z,12.79
2023-04-28T13:52:21.193Z,12.80
2023-04-28T13:54:48.600Z,12.80
2023-04-28T13:57:16.022Z,12.79
2023-04-28T13:59:43.364Z,12.78
2023-04-28T14:02:11.890Z,12.77
2023-04-28T14:04:39.085Z,12.77
2023-04-28T14:07:06.166Z,12.77
2023-04-28T14:09:33.668Z,12.73
2023-04-28T14:12:00.609Z,12.80
2023-04-28T14:14:27.453Z,12.80
2023-04-28T14:16:54.854Z,12.79
2023-04-28T14:19:22.836Z,12.81
2023-04-28T14:21:49.924Z,12.79
2023-04-28T14:24:16.763Z,12.83
2023-04-28T14:26:44.897Z,12.84
2023-04-28T14:29:12.055Z,12.83
2023-04-28T14:31:39.923Z,12.82
2023-04-28T14:34:07.506Z,12.84
2023-04-28T14:36:34.650Z,12.87
2023-04-28T14:39:01.969Z,12.87
2023-04-28T14:41:29.100Z,12.89
2023-04-28T14:43:56.947Z,12.94
2023-04-28T14:46:24.489Z,12.92
2023-04-28T14:48:52.682Z,12.96
2023-04-28T14:51:19.605Z,13.01
2023-04-28T14:53:47.431Z,13.00
2023-04-28T14:56:19.014Z,13.00
2023-04-28T14:58:47.777Z,13.03
2023-04-28T15:01:15.031Z,13.04
2023-04-28T15:03:42.978Z,13.12
2023-04-28T15:06:10.957Z,13.18
2023-04-28T15:08:38.361Z,13.20
2023-04-28T15:11:05.453Z,13.20
2023-04-28T15:13:32.494Z,13.19
2023-04-28T15:15:59.517Z,13.15
2023-04-28T15:18:26.440Z,13.17
2023-04-28T15:20:53.740Z,13.13
2023-04-28T15:23:20.740Z,13.07
2023-04-28T15:25:50.124Z,13.05
2023-04-28T15:28:17.367Z,13.05
2023-04-28T15:30:44.287Z,13.08
2023-04-28T15:33:17.759Z,13.09
2023-04-28T15:35:45.000Z,13.08
2023-04-28T15:38:11.917Z,13.04
2023-04-28T15:40:40.778Z,13.04
2023-04-28T15:43:08.272Z,13.01
2023-04-28T15:45:35.294Z,12.99
2023-04-28T15:48:02.466Z,13.04
2023-04-28T15:50:30.469Z,13.05
2023-04-28T15:52:58.431Z,13.04
2023-04-28T15:55:25.990Z,13.03
2023-04-28T15:57:53.133Z,13.08
2023-04-28T16:00:20.192Z,13.10
2023-04-28T16:02:47.313Z,12.96
2023-04-28T16:05:14.881Z,13.16
2023-04-28T16:07:42.449Z,13.18
2023-04-28T16:10:14.805Z,13.22
2023-04-28T16:12:42.703Z,13.24
2023-04-28T16:15:11.559Z,13.24
2023-04-28T16:17:40.576Z,13.30
2023-04-28T16:20:10.320Z,13.34
2023-04-28T16:22:37.942Z,13.33
2023-04-28T16:25:05.604Z,13.35
2023-04-28T16:27:33.167Z,13.44
2023-04-28T16:30:01.924Z,13.51
2023-04-28T16:32:29.213Z,13.52
2023-04-28T16:34:57.683Z,13.63
2023-04-28T16:37:25.636Z,13.66
2023-04-28T16:39:52.933Z,13.73
2023-04-28T16:42:22.735Z,13.76
2023-04-28T16:44:52.755Z,13.82
2023-04-28T16:47:20.575Z,13.87
2023-04-28T16:49:48.307Z,13.90
2023-04-28T16:52:18.934Z,13.88
2023-04-28T16:54:46.349Z,13.93
2023-04-28T16:57:13.362Z,13.93
2023-04-28T16:59:40.358Z,13.93
2023-04-28T17:02:07.987Z,13.99
2023-04-28T17:04:35.427Z,14.03
2023-04-28T17:07:05.641Z,14.05
2023-04-28T17:09:34.404Z,14.09
2023-04-28T17:12:01.443Z,14.10
2023-04-28T17:14:28.759Z,14.13
2023-04-28T17:16:56.122Z,14.16
2023-04-28T17:19:23.276Z,14.15
2023-04-28T17:21:52.954Z,14.18
2023-04-28T17:24:19.855Z,14.21
2023-04-28T17:26:47.310Z,14.20
2023-04-28T17:29:14.824Z,14.16
2023-04-28T17:31:41.916Z,14.08
2023-04-28T17:34:08.973Z,14.03
2023-04-28T17:36:36.011Z,14.02
2023-04-28T17:39:05.061Z,14.02
2023-04-28T17:41:32.459Z,13.99
2023-04-28T17:43:59.739Z,14.03
2023-04-28T17:46:27.822Z,14.04
2023-04-28T17:48:54.873Z,13.98
2023-04-28T17:51:21.867Z,14.04
2023-04-28T17:53:49.054Z,14.03
2023-04-28T17:56:16.963Z,14.08
2023-04-28T17:58:44.025Z,14.01
2023-04-28T18:01:10.926Z,13.96
2023-04-28T18:03:39.196Z,13.91
2023-04-28T18:06:08.318Z,13.92
2023-04-28T18:08:37.351Z,13.88
2023-04-28T18:11:05.182Z,13.83
2023-04-28T18:13:33.580Z,13.81
2023-04-28T18:16:01.221Z,13.82
2023-04-28T18:18:30.283Z,13.83
2023-04-28T18:21:02.502Z,13.84
2023-04-28T18:23:30.771Z,13.85
2023-04-28T18:25:59.270Z,13.82
2023-04-28T18:28:26.316Z,13.81
2023-04-28T18:30:54.385Z,13.85
2023-04-28T18:33:23.387Z,13.85
2023-04-28T18:35:59.503Z,13.85
2023-04-28T18:38:28.019Z,13.82
2023-04-28T18:40:56.214Z,13.79
2023-04-28T18:43:26.881Z,13.75
2023-04-28T18:45:54.391Z,13.72
2023-04-28T18:48:21.963Z,13.70
2023-04-28T18:50:49.176Z,13.67
2023-04-28T18:53:16.152Z,13.66
2023-04-28T18:55:45.468Z,13.64
2023-04-28T18:58:12.466Z,13.63
2023-04-28T19:00:39.425Z,13.66
2023-04-28T19:03:06.963Z,13.65
2023-04-28T19:05:34.656Z,13.66
2023-04-28T19:08:01.634Z,13.66
2023-04-28T19:10:28.547Z,13.66
2023-04-28T19:12:56.281Z,13.60
2023-04-28T19:15:23.281Z,13.62
2023-04-28T19:17:51.497Z,13.57
2023-04-28T19:20:18.982Z,13.48
2023-04-28T19:22:49.520Z,13.41
2023-04-28T19:25:19.125Z,13.42
2023-04-28T19:27:46.273Z,13.42
2023-04-28T19:30:15.146Z,13.40
2023-04-28T19:32:42.459Z,13.38
2023-04-28T19:35:10.439Z,13.36
2023-04-28T19:37:37.913Z,13.38
2023-04-28T19:40:05.397Z,13.40
2023-04-28T19:42:38.885Z,13.37
2023-04-28T19:45:06.527Z,13.41
2023-04-28T19:47:35.117Z,13.41
2023-04-28T19:50:03.851Z,13.41
2023-04-28T19:52:31.152Z,13.39
2023-04-28T19:54:58.092Z,13.38
2023-04-28T19:57:27.853Z,13.39
2023-04-28T19:59:55.212Z,13.41
2023-04-28T20:02:22.513Z,13.39
2023-04-28T20:04:50.076Z,13.38
2023-04-28T20:07:18.565Z,13.37
2023-04-28T20:09:46.943Z,13.34
2023-04-28T20:12:15.383Z,13.30
2023-04-28T20:14:45.019Z,13.30
2023-04-28T20:17:12.005Z,13.30
2023-04-28T20:19:39.106Z,13.30
2023-04-28T20:25:16.144Z,13.29
2023-04-28T20:27:46.236Z,13.31
2023-04-28T20:30:14.436Z,13.30
2023-04-28T20:32:41.711Z,13.30
2023-04-28T20:35:09.465Z,13.30
2023-04-28T20:37:36.800Z,13.27
2023-04-28T20:40:05.278Z,13.26
2023-04-28T20:42:33.476Z,13.23
2023-04-28T20:45:00.480Z,13.20
2023-04-28T20:47:27.793Z,13.21
2023-04-28T20:49:55.931Z,13.23
2023-04-28T20:52:23.495Z,13.25
2023-04-28T20:54:51.774Z,13.28
2023-04-28T20:57:18.886Z,13.28
2023-04-28T20:59:46.364Z,13.29
2023-04-28T21:02:13.877Z,13.32
2023-04-28T21:04:41.033Z,13.30
2023-04-28T21:07:07.947Z,13.31
2023-04-28T21:09:36.070Z,13.33
2023-04-28T21:12:03.159Z,13.35
2023-04-28T21:14:30.369Z,13.36
2023-04-28T21:16:57.463Z,13.38
2023-04-28T21:19:24.416Z,13.37
2023-04-28T21:21:51.317Z,13.39
2023-04-28T21:24:18.251Z,13.39
2023-04-28T21:26:45.213Z,13.39
2023-04-28T21:29:12.395Z,13.38
2023-04-28T21:31:39.362Z,13.39
2023-04-28T21:34:06.755Z,13.38
2023-04-28T21:36:34.629Z,13.33
2023-04-28T21:39:02.071Z,13.35
2023-04-28T21:41:29.017Z,13.33
2023-04-28T21:43:56.171Z,13.33
2023-04-28T21:46:23.077Z,13.32
2023-04-28T21:48:49.943Z,13.34
2023-04-28T21:51:17.038Z,13.34
2023-04-28T21:53:43.942Z,13.36
2023-04-28T21:56:10.900Z,13.34
2023-04-28T21:58:37.784Z,13.30
2023-04-28T22:01:05.559Z,13.27
2023-04-28T22:03:35.570Z,13.25
2023-04-28T22:06:03.290Z,13.21
2023-04-28T22:08:31.074Z,13.15
2023-04-28T22:10:58.385Z,13.17
2023-04-28T22:13:25.367Z,13.17
2023-04-28T22:15:52.696Z,13.14
2023-04-28T22:18:19.740Z,13.10
2023-04-28T22:20:47.066Z,13.08
2023-04-28T22:23:14.184Z,13.04
2023-04-28T22:25:41.333Z,12.98
2023-04-28T22:28:08.221Z,13.00
2023-04-28T22:30:35.090Z,13.03
2023-04-28T22:33:02.118Z,13.04
2023-04-28T22:35:29.000Z,13.06
2023-04-28T22:37:56.037Z,13.08
2023-04-28T22:40:23.048Z,13.08
2023-04-28T22:42:49.896Z,13.11
2023-04-28T22:45:16.852Z,13.13
2023-04-28T22:47:43.733Z,13.14
2023-04-28T22:50:11.987Z,13.16
2023-04-28T22:52:39.217Z,13.19
2023-04-28T22:55:06.826Z,13.21
2023-04-28T22:57:33.924Z,13.22
2023-04-28T23:00:00.866Z,13.24
2023-04-28T23:02:28.164Z,13.24
2023-04-28T23:04:55.282Z,13.27
2023-04-28T23:07:22.305Z,13.28
2023-04-28T23:09:49.438Z,13.30
2023-04-28T23:12:16.683Z,13.30
2023-04-28T23:14:43.756Z,13.29
2023-04-28T23:17:11.031Z,13.22
2023-04-28T23:19:39.511Z,13.19
2023-04-28T23:22:07.926Z,13.21
2023-04-28T23:24:37.357Z,13.22
2023-04-28T23:27:04.930Z,13.21
2023-04-28T23:29:32.750Z,13.26
2023-04-28T23:31:59.797Z,13.27
2023-04-28T23:34:26.975Z,13.29
2023-04-28T23:36:53.924Z,13.31
2023-04-28T23:39:21.089Z,13.30
2023-04-28T23:41:48.156Z,13.33
2023-04-28T23:44:15.150Z,13.35
2023-04-28T23:46:42.043Z,13.36
2023-04-28T23:49:09.077Z,13.37
2023-04-28T23:51:36.235Z,13.38
2023-04-28T23:54:03.878Z,13.36
2023-04-28T23:56:31.634Z,13.33
2023-04-28T23:58:58.689Z,13.25
